sensor_id;sensor_type;location;lat;lon;timestamp;P1;durP1;ratioP1;P2;durP2;ratioP2
46334;SDS011;32051;48.882;9.210;2022-11-20T00:01:33;17.65;;;10.20;;
46334;SDS011;32051;48.882;9.210;2022-11-20T00:03:59;20.83;;;10.32;;
46334;SDS011;32051;48.882;9.210;2022-11-20T00:06:26;16.27;;;10.52;;
46334;SDS011;32051;48.882;9.210;2022-11-20T00:08:56;22.55;;;11.95;;
46334;SDS011;32051;48.882;9.210;2022-11-20T00:11:23;19.92;;;11.30;;
46334;SDS011;32051;48.882;9.210;2022-11-20T00:13:52;30.15;;;13.23;;
46334;SDS011;32051;48.882;9.210;2022-11-20T00:16:20;20.40;;;11.23;;
46334;SDS011;32051;48.882;9.210;2022-11-20T00:18:47;24.75;;;10.98;;
46334;SDS011;32051;48.882;9.210;2022-11-20T00:21:15;50.45;;;11.65;;
46334;SDS011;32051;48.882;9.210;2022-11-20T00:23:42;27.83;;;11.93;;
46334;SDS011;32051;48.882;9.210;2022-11-20T00:26:10;28.15;;;12.30;;
46334;SDS011;32051;48.882;9.210;2022-11-20T00:28:36;20.33;;;9.75;;
46334;SDS011;32051;48.882;9.210;2022-11-20T00:31:04;68.30;;;11.40;;
46334;SDS011;32051;48.882;9.210;2022-11-20T00:33:30;31.33;;;11.32;;
46334;SDS011;32051;48.882;9.210;2022-11-20T00:36:00;18.23;;;11.10;;
46334;SDS011;32051;48.882;9.210;2022-11-20T00:38:27;20.73;;;9.85;;
46334;SDS011;32051;48.882;9.210;2022-11-20T00:40:57;19.25;;;9.95;;
46334;SDS011;32051;48.882;9.210;2022-11-20T00:43:23;17.42;;;10.23;;
46334;SDS011;32051;48.882;9.210;2022-11-20T00:45:50;62.92;;;12.63;;
46334;SDS011;32051;48.882;9.210;2022-11-20T00:48:16;17.20;;;11.15;;
46334;SDS011;32051;48.882;9.210;2022-11-20T00:50:42;25.95;;;11.20;;
46334;SDS011;32051;48.882;9.210;2022-11-20T00:53:08;26.10;;;10.95;;
46334;SDS011;32051;48.882;9.210;2022-11-20T00:55:35;75.40;;;11.18;;
46334;SDS011;32051;48.882;9.210;2022-11-20T00:58:01;54.50;;;11.80;;
46334;SDS011;32051;48.882;9.210;2022-11-20T01:00:27;41.38;;;11.35;;
46334;SDS011;32051;48.882;9.210;2022-11-20T01:02:55;30.27;;;9.20;;
46334;SDS011;32051;48.882;9.210;2022-11-20T01:05:21;19.13;;;10.25;;
46334;SDS011;32051;48.882;9.210;2022-11-20T01:07:47;27.13;;;10.05;;
46334;SDS011;32051;48.882;9.210;2022-11-20T01:10:13;37.38;;;9.70;;
46334;SDS011;32051;48.882;9.210;2022-11-20T01:12:39;36.17;;;10.93;;
46334;SDS011;32051;48.882;9.210;2022-11-20T01:15:06;16.88;;;10.23;;
46334;SDS011;32051;48.882;9.210;2022-11-20T01:17:33;17.52;;;10.20;;
46334;SDS011;32051;48.882;9.210;2022-11-20T01:19:59;20.02;;;10.07;;
46334;SDS011;32051;48.882;9.210;2022-11-20T01:22:25;19.80;;;10.45;;
46334;SDS011;32051;48.882;9.210;2022-11-20T01:24:51;18.15;;;9.43;;
46334;SDS011;32051;48.882;9.210;2022-11-20T01:27:17;23.02;;;9.82;;
46334;SDS011;32051;48.882;9.210;2022-11-20T01:29:43;23.73;;;10.68;;
46334;SDS011;32051;48.882;9.210;2022-11-20T01:32:10;18.10;;;9.48;;
46334;SDS011;32051;48.882;9.210;2022-11-20T01:34:36;15.52;;;10.48;;
46334;SDS011;32051;48.882;9.210;2022-11-20T01:37:02;51.03;;;11.77;;
46334;SDS011;32051;48.882;9.210;2022-11-20T01:39:28;62.60;;;12.57;;
46334;SDS011;32051;48.882;9.210;2022-11-20T01:41:54;17.30;;;10.25;;
46334;SDS011;32051;48.882;9.210;2022-11-20T01:44:50;41.08;;;11.23;;
46334;SDS011;32051;48.882;9.210;2022-11-20T01:47:19;22.92;;;10.40;;
46334;SDS011;32051;48.882;9.210;2022-11-20T01:49:54;25.35;;;9.38;;
46334;SDS011;32051;48.882;9.210;2022-11-20T01:52:36;26.55;;;10.10;;
46334;SDS011;32051;48.882;9.210;2022-11-20T01:55:05;38.35;;;9.90;;
46334;SDS011;32051;48.882;9.210;2022-11-20T01:57:33;34.15;;;9.32;;
46334;SDS011;32051;48.882;9.210;2022-11-20T02:00:08;47.17;;;9.90;;
46334;SDS011;32051;48.882;9.210;2022-11-20T02:02:38;89.15;;;9.02;;
46334;SDS011;32051;48.882;9.210;2022-11-20T02:05:27;62.80;;;11.02;;
46334;SDS011;32051;48.882;9.210;2022-11-20T02:07:51;73.80;;;10.40;;
46334;SDS011;32051;48.882;9.210;2022-11-20T02:10:18;24.73;;;9.13;;
46334;SDS011;32051;48.882;9.210;2022-11-20T02:12:44;23.75;;;9.15;;
46334;SDS011;32051;48.882;9.210;2022-11-20T02:15:29;59.60;;;10.45;;
46334;SDS011;32051;48.882;9.210;2022-11-20T02:17:55;19.42;;;8.45;;
46334;SDS011;32051;48.882;9.210;2022-11-20T02:20:21;15.82;;;9.00;;
46334;SDS011;32051;48.882;9.210;2022-11-20T02:22:49;9.45;;;8.35;;
46334;SDS011;32051;48.882;9.210;2022-11-20T02:25:17;16.08;;;9.00;;
46334;SDS011;32051;48.882;9.210;2022-11-20T02:27:44;9.05;;;8.20;;
46334;SDS011;32051;48.882;9.210;2022-11-20T02:30:10;11.60;;;8.88;;
46334;SDS011;32051;48.882;9.210;2022-11-20T02:32:37;10.65;;;9.15;;
46334;SDS011;32051;48.882;9.210;2022-11-20T02:35:07;9.52;;;8.65;;
46334;SDS011;32051;48.882;9.210;2022-11-20T02:37:34;9.45;;;8.48;;
46334;SDS011;32051;48.882;9.210;2022-11-20T02:40:02;12.73;;;9.70;;
46334;SDS011;32051;48.882;9.210;2022-11-20T02:42:28;10.02;;;8.75;;
46334;SDS011;32051;48.882;9.210;2022-11-20T02:44:54;12.20;;;8.80;;
46334;SDS011;32051;48.882;9.210;2022-11-20T02:47:20;8.95;;;8.05;;
46334;SDS011;32051;48.882;9.210;2022-11-20T02:49:46;10.32;;;8.55;;
46334;SDS011;32051;48.882;9.210;2022-11-20T02:52:13;11.90;;;8.80;;
46334;SDS011;32051;48.882;9.210;2022-11-20T02:54:39;8.80;;;7.85;;
46334;SDS011;32051;48.882;9.210;2022-11-20T02:57:05;14.00;;;7.32;;
46334;SDS011;32051;48.882;9.210;2022-11-20T02:59:31;9.45;;;8.07;;
46334;SDS011;32051;48.882;9.210;2022-11-20T03:01:57;6.90;;;6.20;;
46334;SDS011;32051;48.882;9.210;2022-11-20T03:04:23;8.10;;;6.28;;
46334;SDS011;32051;48.882;9.210;2022-11-20T03:06:50;6.32;;;5.72;;
46334;SDS011;32051;48.882;9.210;2022-11-20T03:09:16;6.00;;;5.40;;
46334;SDS011;32051;48.882;9.210;2022-11-20T03:11:42;13.27;;;6.18;;
46334;SDS011;32051;48.882;9.210;2022-11-20T03:14:09;9.63;;;6.35;;
46334;SDS011;32051;48.882;9.210;2022-11-20T03:16:35;5.57;;;4.70;;
46334;SDS011;32051;48.882;9.210;2022-11-20T03:19:01;7.18;;;5.03;;
46334;SDS011;32051;48.882;9.210;2022-11-20T03:21:27;5.55;;;4.80;;
46334;SDS011;32051;48.882;9.210;2022-11-20T03:23:53;5.15;;;4.28;;
46334;SDS011;32051;48.882;9.210;2022-11-20T03:26:21;4.97;;;4.07;;
46334;SDS011;32051;48.882;9.210;2022-11-20T03:28:51;5.40;;;4.85;;
46334;SDS011;32051;48.882;9.210;2022-11-20T03:31:18;3.25;;;3.05;;
46334;SDS011;32051;48.882;9.210;2022-11-20T03:33:45;4.28;;;3.42;;
46334;SDS011;32051;48.882;9.210;2022-11-20T03:36:11;2.88;;;2.67;;
46334;SDS011;32051;48.882;9.210;2022-11-20T03:38:38;3.03;;;2.83;;
46334;SDS011;32051;48.882;9.210;2022-11-20T03:41:05;3.20;;;3.00;;
46334;SDS011;32051;48.882;9.210;2022-11-20T03:43:32;2.80;;;2.63;;
46334;SDS011;32051;48.882;9.210;2022-11-20T03:45:58;3.45;;;2.80;;
46334;SDS011;32051;48.882;9.210;2022-11-20T03:48:24;2.55;;;1.90;;
46334;SDS011;32051;48.882;9.210;2022-11-20T03:51:05;2.53;;;2.40;;
46334;SDS011;32051;48.882;9.210;2022-11-20T03:53:32;2.78;;;2.58;;
46334;SDS011;32051;48.882;9.210;2022-11-20T03:55:58;2.72;;;2.50;;
46334;SDS011;32051;48.882;9.210;2022-11-20T03:58:24;2.03;;;1.92;;
46334;SDS011;32051;48.882;9.210;2022-11-20T04:00:50;2.10;;;2.00;;
46334;SDS011;32051;48.882;9.210;2022-11-20T04:03:16;2.60;;;2.40;;
46334;SDS011;32051;48.882;9.210;2022-11-20T04:05:42;2.78;;;1.77;;
46334;SDS011;32051;48.882;9.210;2022-11-20T04:08:09;7.70;;;2.20;;
46334;SDS011;32051;48.882;9.210;2022-11-20T04:10:35;2.25;;;2.15;;
46334;SDS011;32051;48.882;9.210;2022-11-20T04:13:01;2.28;;;2.08;;
46334;SDS011;32051;48.882;9.210;2022-11-20T04:15:27;2.35;;;2.25;;
46334;SDS011;32051;48.882;9.210;2022-11-20T04:17:53;7.88;;;3.38;;
46334;SDS011;32051;48.882;9.210;2022-11-20T04:20:19;3.53;;;2.70;;
46334;SDS011;32051;48.882;9.210;2022-11-20T04:22:45;2.65;;;2.42;;
46334;SDS011;32051;48.882;9.210;2022-11-20T04:25:12;2.58;;;2.38;;
46334;SDS011;32051;48.882;9.210;2022-11-20T04:27:38;2.70;;;2.50;;
46334;SDS011;32051;48.882;9.210;2022-11-20T04:30:04;4.43;;;2.92;;
46334;SDS011;32051;48.882;9.210;2022-11-20T04:32:30;2.33;;;2.22;;
46334;SDS011;32051;48.882;9.210;2022-11-20T04:34:56;6.90;;;2.22;;
46334;SDS011;32051;48.882;9.210;2022-11-20T04:37:23;4.07;;;2.67;;
46334;SDS011;32051;48.882;9.210;2022-11-20T04:39:49;2.45;;;2.00;;
46334;SDS011;32051;48.882;9.210;2022-11-20T04:42:15;2.63;;;2.42;;
46334;SDS011;32051;48.882;9.210;2022-11-20T04:44:53;3.28;;;2.97;;
46334;SDS011;32051;48.882;9.210;2022-11-20T04:47:20;2.83;;;2.10;;
46334;SDS011;32051;48.882;9.210;2022-11-20T04:49:46;2.30;;;2.10;;
46334;SDS011;32051;48.882;9.210;2022-11-20T04:52:13;2.60;;;2.20;;
46334;SDS011;32051;48.882;9.210;2022-11-20T04:54:39;4.13;;;2.53;;
46334;SDS011;32051;48.882;9.210;2022-11-20T04:57:05;2.55;;;2.15;;
46334;SDS011;32051;48.882;9.210;2022-11-20T04:59:31;2.95;;;2.50;;
46334;SDS011;32051;48.882;9.210;2022-11-20T05:01:57;3.83;;;2.33;;
46334;SDS011;32051;48.882;9.210;2022-11-20T05:04:23;9.68;;;2.00;;
46334;SDS011;32051;48.882;9.210;2022-11-20T05:06:50;2.28;;;2.08;;
46334;SDS011;32051;48.882;9.210;2022-11-20T05:09:16;3.08;;;2.80;;
46334;SDS011;32051;48.882;9.210;2022-11-20T05:11:42;2.75;;;2.55;;
46334;SDS011;32051;48.882;9.210;2022-11-20T05:14:08;5.18;;;2.08;;
46334;SDS011;32051;48.882;9.210;2022-11-20T05:16:34;2.78;;;2.58;;
46334;SDS011;32051;48.882;9.210;2022-11-20T05:19:01;2.40;;;2.20;;
46334;SDS011;32051;48.882;9.210;2022-11-20T05:21:29;3.10;;;2.80;;
46334;SDS011;32051;48.882;9.210;2022-11-20T05:23:57;2.83;;;2.28;;
46334;SDS011;32051;48.882;9.210;2022-11-20T05:26:23;2.47;;;2.35;;
46334;SDS011;32051;48.882;9.210;2022-11-20T05:28:50;2.13;;;2.03;;
46334;SDS011;32051;48.882;9.210;2022-11-20T05:31:17;2.95;;;2.75;;
46334;SDS011;32051;48.882;9.210;2022-11-20T05:33:44;2.05;;;1.95;;
46334;SDS011;32051;48.882;9.210;2022-11-20T05:36:11;2.78;;;1.85;;
46334;SDS011;32051;48.882;9.210;2022-11-20T05:38:37;2.40;;;2.20;;
46334;SDS011;32051;48.882;9.210;2022-11-20T05:41:05;2.22;;;2.13;;
46334;SDS011;32051;48.882;9.210;2022-11-20T05:43:32;2.60;;;2.17;;
46334;SDS011;32051;48.882;9.210;2022-11-20T05:45:58;2.72;;;2.42;;
46334;SDS011;32051;48.882;9.210;2022-11-20T05:48:25;4.25;;;2.17;;
46334;SDS011;32051;48.882;9.210;2022-11-20T05:50:51;3.13;;;2.88;;
46334;SDS011;32051;48.882;9.210;2022-11-20T05:53:17;2.25;;;2.10;;
46334;SDS011;32051;48.882;9.210;2022-11-20T05:55:43;1.80;;;1.70;;
46334;SDS011;32051;48.882;9.210;2022-11-20T05:58:09;5.90;;;2.45;;
46334;SDS011;32051;48.882;9.210;2022-11-20T06:00:35;3.17;;;2.22;;
46334;SDS011;32051;48.882;9.210;2022-11-20T06:03:02;2.17;;;1.98;;
46334;SDS011;32051;48.882;9.210;2022-11-20T06:05:28;2.28;;;2.17;;
46334;SDS011;32051;48.882;9.210;2022-11-20T06:07:55;2.92;;;2.63;;
46334;SDS011;32051;48.882;9.210;2022-11-20T06:10:21;2.22;;;2.05;;
46334;SDS011;32051;48.882;9.210;2022-11-20T06:12:47;3.83;;;2.00;;
46334;SDS011;32051;48.882;9.210;2022-11-20T06:15:13;4.45;;;2.30;;
46334;SDS011;32051;48.882;9.210;2022-11-20T06:17:39;2.25;;;2.05;;
46334;SDS011;32051;48.882;9.210;2022-11-20T06:20:05;3.65;;;2.45;;
46334;SDS011;32051;48.882;9.210;2022-11-20T06:22:32;3.45;;;2.28;;
46334;SDS011;32051;48.882;9.210;2022-11-20T06:24:58;1.67;;;1.60;;
46334;SDS011;32051;48.882;9.210;2022-11-20T06:27:24;3.67;;;1.60;;
46334;SDS011;32051;48.882;9.210;2022-11-20T06:29:50;1.90;;;1.80;;
46334;SDS011;32051;48.882;9.210;2022-11-20T06:32:16;15.85;;;2.00;;
46334;SDS011;32051;48.882;9.210;2022-11-20T06:34:43;1.92;;;1.83;;
46334;SDS011;32051;48.882;9.210;2022-11-20T06:37:09;2.63;;;2.15;;
46334;SDS011;32051;48.882;9.210;2022-11-20T06:39:35;2.30;;;2.20;;
46334;SDS011;32051;48.882;9.210;2022-11-20T06:42:01;2.25;;;2.05;;
46334;SDS011;32051;48.882;9.210;2022-11-20T06:44:27;4.18;;;1.85;;
46334;SDS011;32051;48.882;9.210;2022-11-20T06:46:53;2.08;;;1.98;;
46334;SDS011;32051;48.882;9.210;2022-11-20T06:49:19;2.35;;;2.15;;
46334;SDS011;32051;48.882;9.210;2022-11-20T06:51:45;2.03;;;1.92;;
46334;SDS011;32051;48.882;9.210;2022-11-20T06:54:12;3.88;;;2.20;;
46334;SDS011;32051;48.882;9.210;2022-11-20T06:56:38;2.30;;;2.20;;
46334;SDS011;32051;48.882;9.210;2022-11-20T06:59:05;2.10;;;1.95;;
46334;SDS011;32051;48.882;9.210;2022-11-20T07:01:31;2.13;;;1.80;;
46334;SDS011;32051;48.882;9.210;2022-11-20T07:03:57;2.00;;;1.90;;
46334;SDS011;32051;48.882;9.210;2022-11-20T07:06:23;3.40;;;2.97;;
46334;SDS011;32051;48.882;9.210;2022-11-20T07:08:50;2.17;;;2.08;;
46334;SDS011;32051;48.882;9.210;2022-11-20T07:11:17;1.60;;;1.50;;
46334;SDS011;32051;48.882;9.210;2022-11-20T07:13:43;1.90;;;1.80;;
46334;SDS011;32051;48.882;9.210;2022-11-20T07:16:09;1.83;;;1.73;;
46334;SDS011;32051;48.882;9.210;2022-11-20T07:18:36;2.20;;;2.08;;
46334;SDS011;32051;48.882;9.210;2022-11-20T07:21:04;1.90;;;1.80;;
46334;SDS011;32051;48.882;9.210;2022-11-20T07:23:30;2.38;;;1.42;;
46334;SDS011;32051;48.882;9.210;2022-11-20T07:25:56;2.17;;;1.73;;
46334;SDS011;32051;48.882;9.210;2022-11-20T07:28:22;1.20;;;1.17;;
46334;SDS011;32051;48.882;9.210;2022-11-20T07:30:49;4.80;;;2.65;;
46334;SDS011;32051;48.882;9.210;2022-11-20T07:33:16;1.58;;;1.48;;
46334;SDS011;32051;48.882;9.210;2022-11-20T07:35:42;1.90;;;1.60;;
46334;SDS011;32051;48.882;9.210;2022-11-20T07:38:08;1.30;;;1.20;;
46334;SDS011;32051;48.882;9.210;2022-11-20T07:40:34;1.50;;;1.40;;
46334;SDS011;32051;48.882;9.210;2022-11-20T07:43:00;1.50;;;1.40;;
46334;SDS011;32051;48.882;9.210;2022-11-20T07:45:26;1.95;;;1.25;;
46334;SDS011;32051;48.882;9.210;2022-11-20T07:47:52;1.65;;;1.48;;
46334;SDS011;32051;48.882;9.210;2022-11-20T07:50:19;1.60;;;1.50;;
46334;SDS011;32051;48.882;9.210;2022-11-20T07:52:45;1.42;;;1.33;;
46334;SDS011;32051;48.882;9.210;2022-11-20T07:55:11;7.03;;;1.58;;
46334;SDS011;32051;48.882;9.210;2022-11-20T07:57:38;1.52;;;1.42;;
46334;SDS011;32051;48.882;9.210;2022-11-20T08:00:04;1.90;;;1.80;;
46334;SDS011;32051;48.882;9.210;2022-11-20T08:02:37;2.17;;;1.25;;
46334;SDS011;32051;48.882;9.210;2022-11-20T08:05:04;1.45;;;1.35;;
46334;SDS011;32051;48.882;9.210;2022-11-20T08:07:35;6.10;;;2.10;;
46334;SDS011;32051;48.882;9.210;2022-11-20T08:10:01;1.48;;;1.42;;
46334;SDS011;32051;48.882;9.210;2022-11-20T08:12:27;2.10;;;1.60;;
46334;SDS011;32051;48.882;9.210;2022-11-20T08:15:12;3.83;;;2.00;;
46334;SDS011;32051;48.882;9.210;2022-11-20T08:17:38;2.47;;;1.70;;
46334;SDS011;32051;48.882;9.210;2022-11-20T08:20:04;1.70;;;1.60;;
46334;SDS011;32051;48.882;9.210;2022-11-20T08:22:30;1.38;;;1.10;;
46334;SDS011;32051;48.882;9.210;2022-11-20T08:24:57;3.88;;;2.08;;
46334;SDS011;32051;48.882;9.210;2022-11-20T08:27:23;1.02;;;0.98;;
46334;SDS011;32051;48.882;9.210;2022-11-20T08:29:49;4.45;;;1.58;;
46334;SDS011;32051;48.882;9.210;2022-11-20T08:32:15;1.20;;;1.20;;
46334;SDS011;32051;48.882;9.210;2022-11-20T08:34:41;1.95;;;1.42;;
46334;SDS011;32051;48.882;9.210;2022-11-20T08:37:07;1.45;;;1.13;;
46334;SDS011;32051;48.882;9.210;2022-11-20T08:39:34;3.28;;;1.10;;
46334;SDS011;32051;48.882;9.210;2022-11-20T08:42:00;0.82;;;0.82;;
46334;SDS011;32051;48.882;9.210;2022-11-20T08:44:26;4.85;;;1.48;;
46334;SDS011;32051;48.882;9.210;2022-11-20T08:46:52;0.95;;;0.88;;
46334;SDS011;32051;48.882;9.210;2022-11-20T08:49:18;1.00;;;1.00;;
46334;SDS011;32051;48.882;9.210;2022-11-20T08:51:44;1.08;;;0.98;;
46334;SDS011;32051;48.882;9.210;2022-11-20T08:54:13;0.77;;;0.77;;
46334;SDS011;32051;48.882;9.210;2022-11-20T08:56:40;1.27;;;0.80;;
46334;SDS011;32051;48.882;9.210;2022-11-20T08:59:06;0.65;;;0.65;;
46334;SDS011;32051;48.882;9.210;2022-11-20T09:01:32;1.25;;;1.25;;
46334;SDS011;32051;48.882;9.210;2022-11-20T09:03:58;0.70;;;0.70;;
46334;SDS011;32051;48.882;9.210;2022-11-20T09:06:25;0.73;;;0.65;;
46334;SDS011;32051;48.882;9.210;2022-11-20T09:08:52;0.80;;;0.80;;
46334;SDS011;32051;48.882;9.210;2022-11-20T09:11:18;0.50;;;0.50;;
46334;SDS011;32051;48.882;9.210;2022-11-20T09:13:44;1.80;;;1.42;;
46334;SDS011;32051;48.882;9.210;2022-11-20T09:16:10;3.38;;;1.92;;
46334;SDS011;32051;48.882;9.210;2022-11-20T09:18:36;5.68;;;1.70;;
46334;SDS011;32051;48.882;9.210;2022-11-20T09:21:05;1.30;;;1.30;;
46334;SDS011;32051;48.882;9.210;2022-11-20T09:23:33;1.02;;;0.95;;
46334;SDS011;32051;48.882;9.210;2022-11-20T09:26:03;0.90;;;0.90;;
46334;SDS011;32051;48.882;9.210;2022-11-20T09:28:30;0.90;;;0.90;;
46334;SDS011;32051;48.882;9.210;2022-11-20T09:30:56;0.80;;;0.80;;
46334;SDS011;32051;48.882;9.210;2022-11-20T09:33:22;0.85;;;0.85;;
46334;SDS011;32051;48.882;9.210;2022-11-20T09:35:48;0.90;;;0.90;;
46334;SDS011;32051;48.882;9.210;2022-11-20T09:38:15;0.75;;;0.75;;
46334;SDS011;32051;48.882;9.210;2022-11-20T09:40:50;0.70;;;0.70;;
46334;SDS011;32051;48.882;9.210;2022-11-20T09:50:55;1.17;;;1.10;;
46334;SDS011;32051;48.882;9.210;2022-11-20T09:56:24;3.40;;;2.90;;
46334;SDS011;32051;48.882;9.210;2022-11-20T09:58:52;2.10;;;1.75;;
46334;SDS011;32051;48.882;9.210;2022-11-20T10:01:20;1.35;;;1.25;;
46334;SDS011;32051;48.882;9.210;2022-11-20T10:06:17;1.00;;;1.00;;
46334;SDS011;32051;48.882;9.210;2022-11-20T10:08:49;2.38;;;1.13;;
46334;SDS011;32051;48.882;9.210;2022-11-20T10:11:26;0.90;;;0.90;;
46334;SDS011;32051;48.882;9.210;2022-11-20T10:19:12;1.30;;;1.25;;
46334;SDS011;32051;48.882;9.210;2022-11-20T10:21:44;0.98;;;0.90;;
46334;SDS011;32051;48.882;9.210;2022-11-20T10:31:42;1.90;;;1.80;;
46334;SDS011;32051;48.882;9.210;2022-11-20T10:34:16;1.67;;;1.58;;
46334;SDS011;32051;48.882;9.210;2022-11-20T10:36:46;0.85;;;0.85;;
46334;SDS011;32051;48.882;9.210;2022-11-20T10:39:18;1.55;;;0.88;;
46334;SDS011;32051;48.882;9.210;2022-11-20T10:41:46;0.90;;;0.90;;
46334;SDS011;32051;48.882;9.210;2022-11-20T10:44:16;0.90;;;0.80;;
46334;SDS011;32051;48.882;9.210;2022-11-20T10:47:11;0.77;;;0.77;;
46334;SDS011;32051;48.882;9.210;2022-11-20T10:49:38;2.22;;;0.85;;
46334;SDS011;32051;48.882;9.210;2022-11-20T10:52:09;0.95;;;0.95;;
46334;SDS011;32051;48.882;9.210;2022-11-20T10:57:18;7.00;;;1.63;;
46334;SDS011;32051;48.882;9.210;2022-11-20T11:00:06;0.77;;;0.77;;
46334;SDS011;32051;48.882;9.210;2022-11-20T11:04:59;1.33;;;1.25;;
46334;SDS011;32051;48.882;9.210;2022-11-20T11:07:35;2.65;;;1.17;;
46334;SDS011;32051;48.882;9.210;2022-11-20T11:10:05;1.70;;;1.60;;
46334;SDS011;32051;48.882;9.210;2022-11-20T11:12:42;1.52;;;1.42;;
46334;SDS011;32051;48.882;9.210;2022-11-20T11:15:25;2.85;;;2.03;;
46334;SDS011;32051;48.882;9.210;2022-11-20T11:17:51;1.88;;;1.77;;
46334;SDS011;32051;48.882;9.210;2022-11-20T11:20:21;2.70;;;2.50;;
46334;SDS011;32051;48.882;9.210;2022-11-20T11:22:49;2.25;;;1.83;;
46334;SDS011;32051;48.882;9.210;2022-11-20T11:25:19;3.00;;;2.17;;
46334;SDS011;32051;48.882;9.210;2022-11-20T11:27:49;1.75;;;1.45;;
46334;SDS011;32051;48.882;9.210;2022-11-20T11:30:16;3.97;;;1.40;;
46334;SDS011;32051;48.882;9.210;2022-11-20T11:32:42;1.20;;;1.02;;
46334;SDS011;32051;48.882;9.210;2022-11-20T11:35:20;1.10;;;1.10;;
46334;SDS011;32051;48.882;9.210;2022-11-20T11:37:47;1.30;;;1.20;;
46334;SDS011;32051;48.882;9.210;2022-11-20T11:40:14;3.88;;;1.75;;
46334;SDS011;32051;48.882;9.210;2022-11-20T11:42:46;2.22;;;2.03;;
46334;SDS011;32051;48.882;9.210;2022-11-20T11:45:15;7.20;;;2.53;;
46334;SDS011;32051;48.882;9.210;2022-11-20T11:47:47;4.10;;;2.97;;
46334;SDS011;32051;48.882;9.210;2022-11-20T11:55:43;2.88;;;1.38;;
46334;SDS011;32051;48.882;9.210;2022-11-20T12:06:53;2.08;;;1.33;;
46334;SDS011;32051;48.882;9.210;2022-11-20T12:09:24;1.92;;;1.10;;
46334;SDS011;32051;48.882;9.210;2022-11-20T12:14:21;2.60;;;1.08;;
46334;SDS011;32051;48.882;9.210;2022-11-20T12:16:51;10.13;;;1.67;;
46334;SDS011;32051;48.882;9.210;2022-11-20T12:19:18;1.48;;;1.15;;
46334;SDS011;32051;48.882;9.210;2022-11-20T12:24:38;3.67;;;1.65;;
46334;SDS011;32051;48.882;9.210;2022-11-20T12:40:28;0.98;;;0.85;;
46334;SDS011;32051;48.882;9.210;2022-11-20T12:43:41;0.57;;;0.57;;
46334;SDS011;32051;48.882;9.210;2022-11-20T12:53:51;0.68;;;0.68;;
46334;SDS011;32051;48.882;9.210;2022-11-20T13:01:45;1.50;;;0.70;;
46334;SDS011;32051;48.882;9.210;2022-11-20T13:07:10;3.13;;;0.95;;
46334;SDS011;32051;48.882;9.210;2022-11-20T13:09:40;3.58;;;0.45;;
46334;SDS011;32051;48.882;9.210;2022-11-20T13:14:52;1.10;;;0.95;;
46334;SDS011;32051;48.882;9.210;2022-11-20T13:20:22;0.55;;;0.50;;
46334;SDS011;32051;48.882;9.210;2022-11-20T13:22:48;1.23;;;0.90;;
46334;SDS011;32051;48.882;9.210;2022-11-20T13:25:25;1.45;;;0.80;;
46334;SDS011;32051;48.882;9.210;2022-11-20T13:27:53;0.77;;;0.63;;
46334;SDS011;32051;48.882;9.210;2022-11-20T13:30:20;1.38;;;0.95;;
46334;SDS011;32051;48.882;9.210;2022-11-20T13:32:49;1.92;;;0.73;;
46334;SDS011;32051;48.882;9.210;2022-11-20T13:35:33;2.55;;;0.45;;
46334;SDS011;32051;48.882;9.210;2022-11-20T13:38:22;1.17;;;1.00;;
46334;SDS011;32051;48.882;9.210;2022-11-20T13:40:57;2.55;;;1.60;;
46334;SDS011;32051;48.882;9.210;2022-11-20T13:43:46;1.35;;;0.98;;
46334;SDS011;32051;48.882;9.210;2022-11-20T13:46:12;1.25;;;0.60;;
46334;SDS011;32051;48.882;9.210;2022-11-20T13:48:43;1.55;;;1.17;;
46334;SDS011;32051;48.882;9.210;2022-11-20T13:53:48;1.38;;;0.75;;
46334;SDS011;32051;48.882;9.210;2022-11-20T13:56:29;1.58;;;0.68;;
46334;SDS011;32051;48.882;9.210;2022-11-20T13:59:07;1.35;;;0.65;;
46334;SDS011;32051;48.882;9.210;2022-11-20T14:01:36;1.92;;;1.38;;
46334;SDS011;32051;48.882;9.210;2022-11-20T14:04:09;2.25;;;1.33;;
46334;SDS011;32051;48.882;9.210;2022-11-20T14:06:42;5.65;;;2.15;;
46334;SDS011;32051;48.882;9.210;2022-11-20T14:09:13;4.28;;;0.63;;
46334;SDS011;32051;48.882;9.210;2022-11-20T14:11:49;0.57;;;0.57;;
46334;SDS011;32051;48.882;9.210;2022-11-20T14:14:17;5.60;;;2.25;;
46334;SDS011;32051;48.882;9.210;2022-11-20T14:16:44;1.58;;;0.90;;
46334;SDS011;32051;48.882;9.210;2022-11-20T14:21:49;7.18;;;0.82;;
46334;SDS011;32051;48.882;9.210;2022-11-20T14:24:21;1.95;;;0.63;;
46334;SDS011;32051;48.882;9.210;2022-11-20T14:26:47;1.75;;;0.88;;
46334;SDS011;32051;48.882;9.210;2022-11-20T14:29:14;0.93;;;0.82;;
46334;SDS011;32051;48.882;9.210;2022-11-20T14:31:41;1.15;;;0.70;;
46334;SDS011;32051;48.882;9.210;2022-11-20T14:34:15;0.85;;;0.57;;
46334;SDS011;32051;48.882;9.210;2022-11-20T14:36:42;0.80;;;0.65;;
46334;SDS011;32051;48.882;9.210;2022-11-20T14:39:11;2.65;;;0.90;;
46334;SDS011;32051;48.882;9.210;2022-11-20T14:41:37;1.38;;;1.25;;
46334;SDS011;32051;48.882;9.210;2022-11-20T14:44:03;1.83;;;0.70;;
46334;SDS011;32051;48.882;9.210;2022-11-20T14:46:30;1.55;;;0.47;;
46334;SDS011;32051;48.882;9.210;2022-11-20T14:48:57;1.00;;;0.82;;
46334;SDS011;32051;48.882;9.210;2022-11-20T14:51:31;3.35;;;0.90;;
46334;SDS011;32051;48.882;9.210;2022-11-20T14:56:42;1.08;;;0.98;;
46334;SDS011;32051;48.882;9.210;2022-11-20T14:59:22;0.60;;;0.60;;
46334;SDS011;32051;48.882;9.210;2022-11-20T15:02:11;0.93;;;0.93;;
46334;SDS011;32051;48.882;9.210;2022-11-20T15:04:50;1.80;;;0.77;;
46334;SDS011;32051;48.882;9.210;2022-11-20T15:07:27;1.88;;;0.85;;
46334;SDS011;32051;48.882;9.210;2022-11-20T15:10:02;1.38;;;1.08;;
46334;SDS011;32051;48.882;9.210;2022-11-20T15:12:30;5.20;;;0.95;;
46334;SDS011;32051;48.882;9.210;2022-11-20T15:14:56;1.55;;;1.45;;
46334;SDS011;32051;48.882;9.210;2022-11-20T15:17:22;4.90;;;1.20;;
46334;SDS011;32051;48.882;9.210;2022-11-20T15:19:49;1.98;;;1.25;;
46334;SDS011;32051;48.882;9.210;2022-11-20T15:22:15;4.00;;;1.50;;
46334;SDS011;32051;48.882;9.210;2022-11-20T15:24:44;1.90;;;1.10;;
46334;SDS011;32051;48.882;9.210;2022-11-20T15:27:10;0.82;;;0.82;;
46334;SDS011;32051;48.882;9.210;2022-11-20T15:29:37;1.13;;;0.85;;
46334;SDS011;32051;48.882;9.210;2022-11-20T15:32:03;6.57;;;2.05;;
46334;SDS011;32051;48.882;9.210;2022-11-20T15:34:29;2.45;;;0.90;;
46334;SDS011;32051;48.882;9.210;2022-11-20T15:36:55;1.73;;;1.63;;
46334;SDS011;32051;48.882;9.210;2022-11-20T15:39:21;2.15;;;0.85;;
46334;SDS011;32051;48.882;9.210;2022-11-20T15:41:47;0.90;;;0.90;;
46334;SDS011;32051;48.882;9.210;2022-11-20T15:44:13;3.28;;;1.30;;
46334;SDS011;32051;48.882;9.210;2022-11-20T15:46:40;2.92;;;1.90;;
46334;SDS011;32051;48.882;9.210;2022-11-20T15:49:12;2.10;;;1.52;;
46334;SDS011;32051;48.882;9.210;2022-11-20T15:51:39;2.13;;;1.55;;
46334;SDS011;32051;48.882;9.210;2022-11-20T15:54:11;2.28;;;1.20;;
46334;SDS011;32051;48.882;9.210;2022-11-20T15:56:37;2.28;;;1.25;;
46334;SDS011;32051;48.882;9.210;2022-11-20T15:59:03;1.98;;;0.80;;
46334;SDS011;32051;48.882;9.210;2022-11-20T16:01:29;1.35;;;1.25;;
46334;SDS011;32051;48.882;9.210;2022-11-20T16:03:56;2.05;;;1.20;;
46334;SDS011;32051;48.882;9.210;2022-11-20T16:06:22;1.63;;;1.10;;
46334;SDS011;32051;48.882;9.210;2022-11-20T16:08:48;3.20;;;1.00;;
46334;SDS011;32051;48.882;9.210;2022-11-20T16:11:15;2.15;;;1.35;;
46334;SDS011;32051;48.882;9.210;2022-11-20T16:13:42;4.43;;;1.98;;
46334;SDS011;32051;48.882;9.210;2022-11-20T16:16:29;3.78;;;1.08;;
46334;SDS011;32051;48.882;9.210;2022-11-20T16:18:56;1.40;;;1.02;;
46334;SDS011;32051;48.882;9.210;2022-11-20T16:21:23;2.22;;;0.98;;
46334;SDS011;32051;48.882;9.210;2022-11-20T16:23:56;1.77;;;1.52;;